sensor_id;sensor_type;location;lat;lon;timestamp;pressure;altitude;pressure_sealevel;temperature;humidity
73106;BME280;61559;50.476;15.588;2023-08-07T00:01:06;96401.61;;;13.26;96.43
73106;BME280;61559;50.476;15.588;2023-08-07T00:03:37;96403.80;;;13.23;96.31
73106;BME280;61559;50.476;15.588;2023-08-07T00:06:09;96404.14;;;13.21;96.26
73106;BME280;61559;50.476;15.588;2023-08-07T00:08:40;96406.11;;;13.19;96.28
73106;BME280;61559;50.476;15.588;2023-08-07T00:11:11;96406.88;;;13.17;96.42
73106;BME280;61559;50.476;15.588;2023-08-07T00:13:42;96408.66;;;13.13;96.62
73106;BME280;61559;50.476;15.588;2023-08-07T00:16:13;96410.80;;;13.13;96.76
73106;BME280;61559;50.476;15.588;2023-08-07T00:18:44;96416.76;;;13.11;96.78
73106;BME280;61559;50.476;15.588;2023-08-07T00:21:16;96421.68;;;13.09;96.57
73106;BME280;61559;50.476;15.588;2023-08-07T00:23:47;96426.62;;;13.08;96.38
73106;BME280;61559;50.476;15.588;2023-08-07T00:26:19;96426.22;;;13.06;96.52
73106;BME280;61559;50.476;15.588;2023-08-07T00:28:50;96427.52;;;13.04;96.46
73106;BME280;61559;50.476;15.588;2023-08-07T00:31:21;96428.67;;;13.02;96.26
73106;BME280;61559;50.476;15.588;2023-08-07T00:33:52;96432.48;;;13.01;96.15
73106;BME280;61559;50.476;15.588;2023-08-07T00:36:25;96430.50;;;13.00;96.01
73106;BME280;61559;50.476;15.588;2023-08-07T00:38:58;96432.27;;;12.99;95.89
73106;BME280;61559;50.476;15.588;2023-08-07T00:41:29;96433.02;;;12.99;95.78
73106;BME280;61559;50.476;15.588;2023-08-07T00:44:01;96435.95;;;12.98;95.73
73106;BME280;61559;50.476;15.588;2023-08-07T00:46:32;96433.06;;;12.98;95.75
73106;BME280;61559;50.476;15.588;2023-08-07T00:49:03;96436.38;;;12.97;95.74
73106;BME280;61559;50.476;15.588;2023-08-07T00:51:34;96439.71;;;12.98;95.82
73106;BME280;61559;50.476;15.588;2023-08-07T00:54:07;96444.21;;;12.97;95.92
73106;BME280;61559;50.476;15.588;2023-08-07T00:56:39;96448.41;;;12.97;95.95
73106;BME280;61559;50.476;15.588;2023-08-07T00:59:10;96445.45;;;12.96;96.00
73106;BME280;61559;50.476;15.588;2023-08-07T01:01:41;96446.32;;;12.95;96.01
73106;BME280;61559;50.476;15.588;2023-08-07T01:04:13;96444.69;;;12.95;96.07
73106;BME280;61559;50.476;15.588;2023-08-07T01:06:44;96435.67;;;12.95;96.08
73106;BME280;61559;50.476;15.588;2023-08-07T01:09:15;96431.59;;;12.94;96.13
73106;BME280;61559;50.476;15.588;2023-08-07T01:11:49;96435.42;;;12.93;96.08
73106;BME280;61559;50.476;15.588;2023-08-07T01:14:26;96438.96;;;12.92;96.08
73106;BME280;61559;50.476;15.588;2023-08-07T01:17:04;96441.45;;;12.90;96.04
73106;BME280;61559;50.476;15.588;2023-08-07T01:19:36;96440.91;;;12.89;95.94
73106;BME280;61559;50.476;15.588;2023-08-07T01:22:08;96443.27;;;12.89;96.09
73106;BME280;61559;50.476;15.588;2023-08-07T01:24:41;96447.48;;;12.90;96.18
73106;BME280;61559;50.476;15.588;2023-08-07T01:27:27;96447.77;;;12.89;96.21
73106;BME280;61559;50.476;15.588;2023-08-07T01:30:06;96445.90;;;12.87;96.05
73106;BME280;61559;50.476;15.588;2023-08-07T01:32:59;96446.58;;;12.83;96.21
73106;BME280;61559;50.476;15.588;2023-08-07T01:35:32;96445.17;;;12.79;96.18
73106;BME280;61559;50.476;15.588;2023-08-07T01:38:04;96448.11;;;12.78;96.18
73106;BME280;61559;50.476;15.588;2023-08-07T01:40:36;96446.11;;;12.77;96.25
73106;BME280;61559;50.476;15.588;2023-08-07T01:43:08;96444.52;;;12.75;96.30
73106;BME280;61559;50.476;15.588;2023-08-07T01:45:40;96445.02;;;12.74;96.37
73106;BME280;61559;50.476;15.588;2023-08-07T01:48:11;96445.31;;;12.73;96.36
73106;BME280;61559;50.476;15.588;2023-08-07T01:50:42;96442.95;;;12.73;96.43
73106;BME280;61559;50.476;15.588;2023-08-07T01:53:14;96445.58;;;12.71;96.40
73106;BME280;61559;50.476;15.588;2023-08-07T01:55:45;96441.95;;;12.71;96.39
73106;BME280;61559;50.476;15.588;2023-08-07T01:58:16;96442.29;;;12.69;96.42
73106;BME280;61559;50.476;15.588;2023-08-07T02:00:47;96443.55;;;12.69;96.53
73106;BME280;61559;50.476;15.588;2023-08-07T02:03:18;96444.71;;;12.68;96.56
73106;BME280;61559;50.476;15.588;2023-08-07T02:05:49;96438.09;;;12.69;96.55
73106;BME280;61559;50.476;15.588;2023-08-07T02:08:21;96435.55;;;12.68;96.56
73106;BME280;61559;50.476;15.588;2023-08-07T02:10:51;96437.30;;;12.66;96.57
73106;BME280;61559;50.476;15.588;2023-08-07T02:13:23;96434.83;;;12.64;96.68
73106;BME280;61559;50.476;15.588;2023-08-07T02:15:54;96433.52;;;12.62;96.77
73106;BME280;61559;50.476;15.588;2023-08-07T02:18:25;96437.93;;;12.60;96.86
73106;BME280;61559;50.476;15.588;2023-08-07T02:20:57;96438.19;;;12.57;96.99
73106;BME280;61559;50.476;15.588;2023-08-07T02:23:28;96440.27;;;12.54;97.19
73106;BME280;61559;50.476;15.588;2023-08-07T02:25:59;96445.70;;;12.53;97.36
73106;BME280;61559;50.476;15.588;2023-08-07T02:28:30;96448.27;;;12.51;97.41
73106;BME280;61559;50.476;15.588;2023-08-07T02:31:01;96449.06;;;12.50;97.48
73106;BME280;61559;50.476;15.588;2023-08-07T02:33:32;96446.54;;;12.50;97.61
73106;BME280;61559;50.476;15.588;2023-08-07T02:36:04;96445.27;;;12.48;97.73
73106;BME280;61559;50.476;15.588;2023-08-07T02:38:35;96442.09;;;12.48;97.82
73106;BME280;61559;50.476;15.588;2023-08-07T02:41:06;96440.31;;;12.47;97.90
73106;BME280;61559;50.476;15.588;2023-08-07T02:43:37;96445.02;;;12.46;97.97
73106;BME280;61559;50.476;15.588;2023-08-07T02:46:08;96442.00;;;12.47;98.05
73106;BME280;61559;50.476;15.588;2023-08-07T02:48:39;96444.38;;;12.47;97.95
73106;BME280;61559;50.476;15.588;2023-08-07T02:51:10;96442.90;;;12.48;97.95
73106;BME280;61559;50.476;15.588;2023-08-07T02:53:41;96442.84;;;12.49;97.97
73106;BME280;61559;50.476;15.588;2023-08-07T02:56:12;96443.73;;;12.49;97.93
73106;BME280;61559;50.476;15.588;2023-08-07T02:58:43;96439.98;;;12.51;97.93
73106;BME280;61559;50.476;15.588;2023-08-07T03:01:14;96442.52;;;12.51;97.88
73106;BME280;61559;50.476;15.588;2023-08-07T03:03:45;96439.01;;;12.53;97.77
73106;BME280;61559;50.476;15.588;2023-08-07T03:06:16;96436.79;;;12.53;97.81
73106;BME280;61559;50.476;15.588;2023-08-07T03:08:47;96442.93;;;12.54;97.80
73106;BME280;61559;50.476;15.588;2023-08-07T03:11:18;96445.81;;;12.55;97.82
73106;BME280;61559;50.476;15.588;2023-08-07T03:13:50;96447.25;;;12.57;97.85
73106;BME280;61559;50.476;15.588;2023-08-07T03:16:21;96446.50;;;12.56;97.77
73106;BME280;61559;50.476;15.588;2023-08-07T03:18:52;96446.49;;;12.55;97.85
73106;BME280;61559;50.476;15.588;2023-08-07T03:21:23;96446.34;;;12.55;97.85
73106;BME280;61559;50.476;15.588;2023-08-07T03:23:54;96449.06;;;12.55;97.98
73106;BME280;61559;50.476;15.588;2023-08-07T03:26:26;96452.35;;;12.53;97.94
73106;BME280;61559;50.476;15.588;2023-08-07T03:28:57;96451.61;;;12.52;97.99
73106;BME280;61559;50.476;15.588;2023-08-07T03:31:28;96450.50;;;12.52;97.93
73106;BME280;61559;50.476;15.588;2023-08-07T03:33:59;96452.63;;;12.52;97.98
73106;BME280;61559;50.476;15.588;2023-08-07T03:36:30;96453.66;;;12.52;97.92
73106;BME280;61559;50.476;15.588;2023-08-07T03:39:01;96455.08;;;12.52;97.98
73106;BME280;61559;50.476;15.588;2023-08-07T03:41:32;96458.25;;;12.52;97.93
73106;BME280;61559;50.476;15.588;2023-08-07T03:44:04;96465.11;;;12.52;97.86
73106;BME280;61559;50.476;15.588;2023-08-07T03:46:35;96462.67;;;12.52;97.86
73106;BME280;61559;50.476;15.588;2023-08-07T03:49:07;96461.92;;;12.52;97.88
73106;BME280;61559;50.476;15.588;2023-08-07T03:51:37;96460.59;;;12.51;97.92
73106;BME280;61559;50.476;15.588;2023-08-07T03:54:09;96464.04;;;12.50;97.94
73106;BME280;61559;50.476;15.588;2023-08-07T03:56:40;96467.73;;;12.50;97.98
73106;BME280;61559;50.476;15.588;2023-08-07T03:59:11;96467.63;;;12.48;98.08
73106;BME280;61559;50.476;15.588;2023-08-07T04:01:42;96470.85;;;12.47;98.17
73106;BME280;61559;50.476;15.588;2023-08-07T04:04:13;96475.80;;;12.47;98.11
73106;BME280;61559;50.476;15.588;2023-08-07T04:06:44;96472.10;;;12.47;98.10
73106;BME280;61559;50.476;15.588;2023-08-07T04:09:15;96475.06;;;12.47;98.19
73106;BME280;61559;50.476;15.588;2023-08-07T04:11:47;96473.95;;;12.47;98.20
73106;BME280;61559;50.476;15.588;2023-08-07T04:14:18;96479.95;;;12.48;98.16
73106;BME280;61559;50.476;15.588;2023-08-07T04:16:49;96478.83;;;12.47;98.26
73106;BME280;61559;50.476;15.588;2023-08-07T04:19:20;96484.36;;;12.47;98.08
73106;BME280;61559;50.476;15.588;2023-08-07T04:21:51;96485.26;;;12.48;98.08
73106;BME280;61559;50.476;15.588;2023-08-07T04:24:23;96486.85;;;12.51;98.04
73106;BME280;61559;50.476;15.588;2023-08-07T04:26:56;96486.29;;;12.52;97.93
73106;BME280;61559;50.476;15.588;2023-08-07T04:29:27;96482.72;;;12.51;97.93
73106;BME280;61559;50.476;15.588;2023-08-07T04:31:58;96488.20;;;12.51;97.86
73106;BME280;61559;50.476;15.588;2023-08-07T04:34:29;96487.81;;;12.51;97.91
73106;BME280;61559;50.476;15.588;2023-08-07T04:37:01;96488.33;;;12.51;97.90
73106;BME280;61559;50.476;15.588;2023-08-07T04:39:32;96489.50;;;12.50;97.82
73106;BME280;61559;50.476;15.588;2023-08-07T04:42:04;96490.53;;;12.50;97.76
73106;BME280;61559;50.476;15.588;2023-08-07T04:44:35;96492.61;;;12.51;97.64
73106;BME280;61559;50.476;15.588;2023-08-07T04:47:07;96493.88;;;12.52;97.64
73106;BME280;61559;50.476;15.588;2023-08-07T04:49:38;96493.35;;;12.52;97.55
73106;BME280;61559;50.476;15.588;2023-08-07T04:52:09;96492.41;;;12.52;97.49
73106;BME280;61559;50.476;15.588;2023-08-07T04:54:54;96499.06;;;12.53;97.51
73106;BME280;61559;50.476;15.588;2023-08-07T04:57:25;96497.73;;;12.53;97.63
73106;BME280;61559;50.476;15.588;2023-08-07T04:59:56;96497.45;;;12.54;97.58
73106;BME280;61559;50.476;15.588;2023-08-07T05:02:27;96497.98;;;12.55;97.60
73106;BME280;61559;50.476;15.588;2023-08-07T05:04:59;96497.58;;;12.56;97.67
73106;BME280;61559;50.476;15.588;2023-08-07T05:07:32;96497.58;;;12.56;97.57
73106;BME280;61559;50.476;15.588;2023-08-07T05:10:04;96498.83;;;12.56;97.52
73106;BME280;61559;50.476;15.588;2023-08-07T05:12:35;96498.52;;;12.56;97.50
73106;BME280;61559;50.476;15.588;2023-08-07T05:15:08;96502.02;;;12.57;97.57
73106;BME280;61559;50.476;15.588;2023-08-07T05:17:39;96502.46;;;12.58;97.60
73106;BME280;61559;50.476;15.588;2023-08-07T05:20:11;96510.29;;;12.57;97.56
73106;BME280;61559;50.476;15.588;2023-08-07T05:22:42;96511.52;;;12.56;97.51
73106;BME280;61559;50.476;15.588;2023-08-07T05:25:13;96511.52;;;12.56;97.51
73106;BME280;61559;50.476;15.588;2023-08-07T05:27:46;96515.06;;;12.57;97.36
73106;BME280;61559;50.476;15.588;2023-08-07T05:30:17;96515.73;;;12.56;97.46
73106;BME280;61559;50.476;15.588;2023-08-07T05:32:48;96519.98;;;12.55;97.50
73106;BME280;61559;50.476;15.588;2023-08-07T05:35:19;96524.17;;;12.54;97.50
73106;BME280;61559;50.476;15.588;2023-08-07T05:37:50;96525.47;;;12.53;97.63
73106;BME280;61559;50.476;15.588;2023-08-07T05:40:21;96529.75;;;12.52;97.62
73106;BME280;61559;50.476;15.588;2023-08-07T05:42:52;96531.50;;;12.52;97.66
73106;BME280;61559;50.476;15.588;2023-08-07T05:45:23;96541.16;;;12.51;97.70
73106;BME280;61559;50.476;15.588;2023-08-07T05:47:55;96543.36;;;12.50;97.84
73106;BME280;61559;50.476;15.588;2023-08-07T05:50:26;96545.56;;;12.49;97.84
73106;BME280;61559;50.476;15.588;2023-08-07T05:52:56;96546.42;;;12.48;97.76
73106;BME280;61559;50.476;15.588;2023-08-07T05:55:28;96547.91;;;12.49;97.68
73106;BME280;61559;50.476;15.588;2023-08-07T05:57:58;96555.59;;;12.48;97.72
73106;BME280;61559;50.476;15.588;2023-08-07T06:00:29;96556.64;;;12.49;97.84
73106;BME280;61559;50.476;15.588;2023-08-07T06:03:01;96557.33;;;12.51;97.87
73106;BME280;61559;50.476;15.588;2023-08-07T06:05:32;96559.46;;;12.52;97.77
73106;BME280;61559;50.476;15.588;2023-08-07T06:08:03;96559.05;;;12.53;97.67
73106;BME280;61559;50.476;15.588;2023-08-07T06:10:34;96560.38;;;12.56;97.77
73106;BME280;61559;50.476;15.588;2023-08-07T06:13:05;96563.02;;;12.60;97.70
73106;BME280;61559;50.476;15.588;2023-08-07T06:15:43;96571.30;;;12.65;97.70
73106;BME280;61559;50.476;15.588;2023-08-07T06:18:14;96571.63;;;12.70;97.74
73106;BME280;61559;50.476;15.588;2023-08-07T06:20:45;96577.55;;;12.75;97.66
73106;BME280;61559;50.476;15.588;2023-08-07T06:23:16;96579.99;;;12.80;97.77
73106;BME280;61559;50.476;15.588;2023-08-07T06:25:47;96586.60;;;12.86;97.72
73106;BME280;61559;50.476;15.588;2023-08-07T06:28:22;96590.45;;;12.95;97.87
73106;BME280;61559;50.476;15.588;2023-08-07T06:30:53;96594.39;;;13.02;97.81
73106;BME280;61559;50.476;15.588;2023-08-07T06:33:24;96596.39;;;13.11;97.91
73106;BME280;61559;50.476;15.588;2023-08-07T06:35:55;96596.71;;;13.20;98.06
73106;BME280;61559;50.476;15.588;2023-08-07T06:38:26;96596.92;;;13.28;97.93
73106;BME280;61559;50.476;15.588;2023-08-07T06:40:58;96598.95;;;13.35;97.60
73106;BME280;61559;50.476;15.588;2023-08-07T06:43:29;96603.03;;;13.41;97.27
73106;BME280;61559;50.476;15.588;2023-08-07T06:46:00;96604.45;;;13.46;96.89
73106;BME280;61559;50.476;15.588;2023-08-07T06:48:31;96603.88;;;13.48;96.13
73106;BME280;61559;50.476;15.588;2023-08-07T06:51:03;96606.47;;;13.48;95.01
73106;BME280;61559;50.476;15.588;2023-08-07T06:53:34;96613.76;;;13.46;93.85
73106;BME280;61559;50.476;15.588;2023-08-07T06:56:05;96614.77;;;13.44;93.63
73106;BME280;61559;50.476;15.588;2023-08-07T06:58:37;96616.00;;;13.43;93.54
73106;BME280;61559;50.476;15.588;2023-08-07T07:01:08;96618.14;;;13.42;93.47
73106;BME280;61559;50.476;15.588;2023-08-07T07:03:39;96625.54;;;13.39;92.19
73106;BME280;61559;50.476;15.588;2023-08-07T07:06:11;96629.21;;;13.37;92.08
73106;BME280;61559;50.476;15.588;2023-08-07T07:08:42;96632.81;;;13.36;91.68
73106;BME280;61559;50.476;15.588;2023-08-07T07:11:13;96639.30;;;13.35;90.80
73106;BME280;61559;50.476;15.588;2023-08-07T07:13:45;96643.10;;;13.37;90.92
73106;BME280;61559;50.476;15.588;2023-08-07T07:16:16;96652.16;;;13.40;90.71
73106;BME280;61559;50.476;15.588;2023-08-07T07:18:47;96649.21;;;13.45;90.36
73106;BME280;61559;50.476;15.588;2023-08-07T07:21:19;96653.52;;;13.51;90.30
73106;BME280;61559;50.476;15.588;2023-08-07T07:23:49;96664.00;;;13.59;90.26
73106;BME280;61559;50.476;15.588;2023-08-07T07:26:21;96665.04;;;13.64;88.97
73106;BME280;61559;50.476;15.588;2023-08-07T07:28:52;96666.18;;;13.70;89.58
73106;BME280;61559;50.476;15.588;2023-08-07T07:31:23;96667.41;;;13.78;89.14
73106;BME280;61559;50.476;15.588;2023-08-07T07:33:54;96664.33;;;13.86;88.87
73106;BME280;61559;50.476;15.588;2023-08-07T07:36:25;96673.77;;;13.94;88.74
73106;BME280;61559;50.476;15.588;2023-08-07T07:38:56;96684.31;;;14.02;88.21
73106;BME280;61559;50.476;15.588;2023-08-07T07:41:27;96681.20;;;14.06;87.17
73106;BME280;61559;50.476;15.588;2023-08-07T07:43:58;96683.07;;;14.08;86.27
73106;BME280;61559;50.476;15.588;2023-08-07T07:46:31;96689.52;;;14.14;86.94
73106;BME280;61559;50.476;15.588;2023-08-07T07:49:03;96682.33;;;14.19;85.92
73106;BME280;61559;50.476;15.588;2023-08-07T07:51:34;96692.55;;;14.25;86.15
73106;BME280;61559;50.476;15.588;2023-08-07T07:54:06;96693.06;;;14.35;86.15
73106;BME280;61559;50.476;15.588;2023-08-07T07:56:43;96690.90;;;14.43;85.00
73106;BME280;61559;50.476;15.588;2023-08-07T07:59:15;96698.95;;;14.52;85.21
73106;BME280;61559;50.476;15.588;2023-08-07T08:01:46;96706.73;;;14.64;85.17
73106;BME280;61559;50.476;15.588;2023-08-07T08:04:17;96705.41;;;14.71;84.46
73106;BME280;61559;50.476;15.588;2023-08-07T08:06:49;96710.66;;;14.79;83.78
73106;BME280;61559;50.476;15.588;2023-08-07T08:09:20;96706.85;;;14.82;82.35
73106;BME280;61559;50.476;15.588;2023-08-07T08:11:51;96716.90;;;14.87;82.72
73106;BME280;61559;50.476;15.588;2023-08-07T08:14:22;96713.84;;;14.92;82.57
73106;BME280;61559;50.476;15.588;2023-08-07T08:16:53;96715.05;;;14.99;83.12
73106;BME280;61559;50.476;15.588;2023-08-07T08:19:24;96718.33;;;15.06;82.34
73106;BME280;61559;50.476;15.588;2023-08-07T08:22:02;96727.91;;;15.03;80.88
73106;BME280;61559;50.476;15.588;2023-08-07T08:24:33;96730.56;;;14.95;81.78
73106;BME280;61559;50.476;15.588;2023-08-07T08:27:05;96739.73;;;14.88;81.97
73106;BME280;61559;50.476;15.588;2023-08-07T08:29:36;96742.97;;;14.80;82.29
73106;BME280;61559;50.476;15.588;2023-08-07T08:32:08;96743.30;;;14.70;82.34
73106;BME280;61559;50.476;15.588;2023-08-07T08:34:39;96748.59;;;14.60;83.55
73106;BME280;61559;50.476;15.588;2023-08-07T08:37:10;96746.14;;;14.49;84.24
73106;BME280;61559;50.476;15.588;2023-08-07T08:39:41;96754.36;;;14.40;85.26
73106;BME280;61559;50.476;15.588;2023-08-07T08:42:13;96760.82;;;14.32;85.95
73106;BME280;61559;50.476;15.588;2023-08-07T08:44:48;96764.01;;;14.23;86.04
73106;BME280;61559;50.476;15.588;2023-08-07T08:47:22;96767.45;;;14.16;86.30
73106;BME280;61559;50.476;15.588;2023-08-07T08:49:57;96770.09;;;14.10;86.71
73106;BME280;61559;50.476;15.588;2023-08-07T08:52:32;96774.98;;;14.06;87.23
73106;BME280;61559;50.476;15.588;2023-08-07T08:55:04;96778.39;;;14.06;87.66
73106;BME280;61559;50.476;15.588;2023-08-07T08:57:37;96775.71;;;14.09;87.80
73106;BME280;61559;50.476;15.588;2023-08-07T09:00:10;96776.91;;;14.15;87.69
73106;BME280;61559;50.476;15.588;2023-08-07T09:02:48;96775.33;;;14.28;88.09
73106;BME280;61559;50.476;15.588;2023-08-07T09:05:20;96778.17;;;14.43;87.87
73106;BME280;61559;50.476;15.588;2023-08-07T09:07:52;96772.86;;;14.59;88.14
73106;BME280;61559;50.476;15.588;2023-08-07T09:10:23;96774.30;;;14.74;87.83
73106;BME280;61559;50.476;15.588;2023-08-07T09:12:59;96777.16;;;14.89;87.67
73106;BME280;61559;50.476;15.588;2023-08-07T09:15:33;96781.14;;;15.05;87.21
73106;BME280;61559;50.476;15.588;2023-08-07T09:18:07;96781.44;;;15.18;86.00
73106;BME280;61559;50.476;15.588;2023-08-07T09:20:40;96775.89;;;15.31;86.28
73106;BME280;61559;50.476;15.588;2023-08-07T09:23:12;96775.06;;;15.44;85.41
73106;BME280;61559;50.476;15.588;2023-08-07T09:25:45;96778.78;;;15.52;84.35
73106;BME280;61559;50.476;15.588;2023-08-07T09:28:16;96780.27;;;15.57;83.62
73106;BME280;61559;50.476;15.588;2023-08-07T09:30:47;96778.51;;;15.61;82.95
73106;BME280;61559;50.476;15.588;2023-08-07T09:33:25;96774.94;;;15.68;83.65
73106;BME280;61559;50.476;15.588;2023-08-07T09:36:00;96776.95;;;15.78;83.97
73106;BME280;61559;50.476;15.588;2023-08-07T09:38:32;96778.87;;;15.84;82.24
73106;BME280;61559;50.476;15.588;2023-08-07T09:41:04;96770.91;;;15.82;82.77
73106;BME280;61559;50.476;15.588;2023-08-07T09:43:36;96771.63;;;15.80;83.24
73106;BME280;61559;50.476;15.588;2023-08-07T09:46:08;96775.52;;;15.74;83.01
73106;BME280;61559;50.476;15.588;2023-08-07T09:48:42;96779.86;;;15.63;82.34
73106;BME280;61559;50.476;15.588;2023-08-07T09:51:14;96782.10;;;15.50;83.01
73106;BME280;61559;50.476;15.588;2023-08-07T09:53:46;96786.96;;;15.40;82.73
73106;BME280;61559;50.476;15.588;2023-08-07T09:56:17;96791.20;;;15.30;82.08
73106;BME280;61559;50.476;15.588;2023-08-07T09:58:54;96798.88;;;15.20;82.03
73106;BME280;61559;50.476;15.588;2023-08-07T10:01:26;96804.47;;;15.11;81.39
73106;BME280;61559;50.476;15.588;2023-08-07T10:03:58;96806.71;;;15.06;81.73
73106;BME280;61559;50.476;15.588;2023-08-07T10:06:31;96809.52;;;15.06;81.48
73106;BME280;61559;50.476;15.588;2023-08-07T10:09:02;96822.96;;;15.08;81.45
73106;BME280;61559;50.476;15.588;2023-08-07T10:11:34;96822.23;;;15.09;80.77
73106;BME280;61559;50.476;15.588;2023-08-07T10:14:06;96820.65;;;15.13;81.25
73106;BME280;61559;50.476;15.588;2023-08-07T10:16:39;96824.71;;;15.18;80.71
73106;BME280;61559;50.476;15.588;2023-08-07T10:19:11;96826.36;;;15.25;79.98
73106;BME280;61559;50.476;15.588;2023-08-07T10:21:42;96825.83;;;15.36;80.59
73106;BME280;61559;50.476;15.588;2023-08-07T10:24:15;96820.56;;;15.54;81.44
73106;BME280;61559;50.476;15.588;2023-08-07T10:26:47;96822.13;;;15.77;78.61
73106;BME280;61559;50.476;15.588;2023-08-07T10:29:20;96817.91;;;15.93;78.68
73106;BME280;61559;50.476;15.588;2023-08-07T10:31:55;96818.25;;;16.06;78.33
73106;BME280;61559;50.476;15.588;2023-08-07T10:34:29;96822.21;;;16.10;77.41
73106;BME280;61559;50.476;15.588;2023-08-07T10:37:01;96826.91;;;16.04;76.95
73106;BME280;61559;50.476;15.588;2023-08-07T10:39:32;96836.27;;;15.96;78.62
73106;BME280;61559;50.476;15.588;2023-08-07T10:42:04;96830.69;;;15.87;79.55
73106;BME280;61559;50.476;15.588;2023-08-07T10:44:49;96828.96;;;15.78;79.87
73106;BME280;61559;50.476;15.588;2023-08-07T10:47:33;96828.72;;;15.77;79.97
73106;BME280;61559;50.476;15.588;2023-08-07T10:50:06;96833.45;;;15.76;79.48
73106;BME280;61559;50.476;15.588;2023-08-07T10:52:39;96832.87;;;15.76;80.24
73106;BME280;61559;50.476;15.588;2023-08-07T10:55:15;96825.71;;;15.80;81.07
73106;BME280;61559;50.476;15.588;2023-08-07T10:57:48;96823.77;;;15.86;80.61
73106;BME280;61559;50.476;15.588;2023-08-07T11:00:26;96823.46;;;15.93;80.43
73106;BME280;61559;50.476;15.588;2023-08-07T11:02:59;96824.33;;;15.98;79.13
73106;BME280;61559;50.476;15.588;2023-08-07T11:05:33;96825.59;;;16.05;78.73
73106;BME280;61559;50.476;15.588;2023-08-07T11:08:04;96824.93;;;16.07;78.79
73106;BME280;61559;50.476;15.588;2023-08-07T11:10:35;96817.48;;;16.11;78.51
73106;BME280;61559;50.476;15.588;2023-08-07T11:13:06;96818.14;;;16.18;78.27
73106;BME280;61559;50.476;15.588;2023-08-07T11:15:37;96818.36;;;16.28;78.88
73106;BME280;61559;50.476;15.588;2023-08-07T11:18:08;96820.73;;;16.35;76.74
73106;BME280;61559;50.476;15.588;2023-08-07T11:20:39;96824.68;;;16.39;75.19
73106;BME280;61559;50.476;15.588;2023-08-07T11:23:10;96827.20;;;16.39;74.43
73106;BME280;61559;50.476;15.588;2023-08-07T11:25:42;96826.77;;;16.39;74.39
73106;BME280;61559;50.476;15.588;2023-08-07T11:28:13;96828.77;;;16.40;73.54
73106;BME280;61559;50.476;15.588;2023-08-07T11:30:44;96831.91;;;16.42;73.87
73106;BME280;61559;50.476;15.588;2023-08-07T11:33:16;96833.02;;;16.42;72.16
73106;BME280;61559;50.476;15.588;2023-08-07T11:35:48;96831.13;;;16.37;72.75
73106;BME280;61559;50.476;15.588;2023-08-07T11:38:31;96830.84;;;16.39;73.67
73106;BME280;61559;50.476;15.588;2023-08-07T11:41:04;96830.66;;;16.46;74.19
73106;BME280;61559;50.476;15.588;2023-08-07T11:43:36;96830.65;;;16.57;74.81
73106;BME280;61559;50.476;15.588;2023-08-07T11:46:08;96830.76;;;16.68;74.16
73106;BME280;61559;50.476;15.588;2023-08-07T11:48:40;96828.67;;;16.80;74.25
73106;BME280;61559;50.476;15.588;2023-08-07T11:51:12;96834.39;;;16.91;72.50
73106;BME280;61559;50.476;15.588;2023-08-07T11:53:43;96831.71;;;16.91;72.10
73106;BME280;61559;50.476;15.588;2023-08-07T11:56:14;96833.88;;;16.90;72.41
73106;BME280;61559;50.476;15.588;2023-08-07T11:58:47;96837.58;;;16.88;71.66
73106;BME280;61559;50.476;15.588;2023-08-07T12:01:20;96832.94;;;16.83;71.57
73106;BME280;61559;50.476;15.588;2023-08-07T12:03:55;96844.70;;;16.76;71.52
73106;BME280;61559;50.476;15.588;2023-08-07T12:06:27;96851.71;;;16.68;71.62
73106;BME280;61559;50.476;15.588;2023-08-07T12:08:58;96857.84;;;16.64;71.53
73106;BME280;61559;50.476;15.588;2023-08-07T12:11:31;96850.89;;;16.68;72.89
73106;BME280;61559;50.476;15.588;2023-08-07T12:14:02;96851.38;;;16.85;73.49
73106;BME280;61559;50.476;15.588;2023-08-07T12:16:35;96851.92;;;17.01;73.45
73106;BME280;61559;50.476;15.588;2023-08-07T12:19:07;96854.85;;;17.20;73.29
73106;BME280;61559;50.476;15.588;2023-08-07T12:21:38;96850.45;;;17.39;72.46
73106;BME280;61559;50.476;15.588;2023-08-07T12:24:09;96854.43;;;17.52;70.58
73106;BME280;61559;50.476;15.588;2023-08-07T12:26:40;96858.76;;;17.53;69.48
73106;BME280;61559;50.476;15.588;2023-08-07T12:29:12;96862.88;;;17.43;68.85
73106;BME280;61559;50.476;15.588;2023-08-07T12:31:42;96863.08;;;17.30;69.19
73106;BME280;61559;50.476;15.588;2023-08-07T12:34:14;96868.63;;;17.27;70.47
73106;BME280;61559;50.476;15.588;2023-08-07T12:36:48;96873.63;;;17.34;70.75
73106;BME280;61559;50.476;15.588;2023-08-07T12:39:20;96864.13;;;17.37;70.22
73106;BME280;61559;50.476;15.588;2023-08-07T12:42:13;96861.14;;;17.37;70.72
73106;BME280;61559;50.476;15.588;2023-08-07T12:44:47;96853.11;;;17.33;69.70
73106;BME280;61559;50.476;15.588;2023-08-07T12:47:18;96853.70;;;17.33;69.82
73106;BME280;61559;50.476;15.588;2023-08-07T12:49:49;96851.25;;;17.36;68.86
73106;BME280;61559;50.476;15.588;2023-08-07T12:52:20;96856.61;;;17.37;68.97
73106;BME280;61559;50.476;15.588;2023-08-07T12:54:51;96868.05;;;17.32;67.84
73106;BME280;61559;50.476;15.588;2023-08-07T12:57:22;96870.48;;;17.24;67.55
73106;BME280;61559;50.476;15.588;2023-08-07T12:59:56;96881.05;;;17.13;66.85
73106;BME280;61559;50.476;15.588;2023-08-07T13:02:27;96887.89;;;17.00;67.39
73106;BME280;61559;50.476;15.588;2023-08-07T13:04:58;96887.63;;;16.95;68.87
73106;BME280;61559;50.476;15.588;2023-08-07T13:07:29;96892.20;;;17.00;69.17
73106;BME280;61559;50.476;15.588;2023-08-07T13:10:00;96888.48;;;17.11;69.51
73106;BME280;61559;50.476;15.588;2023-08-07T13:12:33;96892.77;;;17.21;68.92
73106;BME280;61559;50.476;15.588;2023-08-07T13:15:06;96890.66;;;17.34;68.77